Tropical Cyclones
[Index]
Main Index Home Page Stock Weather Photos Extreme Storms Discussion Storm News and Storm Chasing Reports Tropical Cyclones / Hurricanes / Typhoons Weather Data and Links Wild Fires / Bushfires Weather Observation Techniques Weather Picture Catalogue Tornado Pictures and Reports Stock Video Footage and DVDs for sale
Season 1992-1993 Tropical Cyclone ROGER Track Map
Season 1992-1993 Summaries: [BoM-AU] [JTWC-AU] [JTWC-SIO] [JTWC-SPAC] [JTWC-SH]
<<- Previous TC | BoM 1992-1993 Season | Next TC ->>

click for intensity scale information  Lat/long Grid: Show Hide

 Date Labels: Show Hide

Bureau of Meteorology Tropical Cyclone Data

Name: ROGER
Number: 758 / 199293_06

12 Mar 1993 00:00 UTC to 21 Mar 1993 00:00 UTC

    date/time    lat    long    hPa   cat  kts
1993-03-12 00   10.0   157.0    998         35          
1993-03-12 06   10.7   156.6    998         35          
1993-03-12 12   11.4   156.2    995    1    35          
1993-03-12 18   12.0   155.9    990    1    41          
1993-03-13 00   12.8   155.6    990    1    41          
1993-03-13 06   13.6   155.4    990    1    41          
1993-03-13 12   14.3   155.4    990    1    41          
1993-03-13 18   14.9   155.4    988    1    41          
1993-03-14 00   15.9   155.7    985    2    51          
1993-03-14 06   16.5   155.9    985    2    51          
1993-03-14 12   16.9   156.0    985    2    51          
1993-03-14 18   17.4   156.0    980    2    51          
1993-03-15 00   18.3   156.0    980    2    60          
1993-03-15 06   19.3   155.9    980    2    60          
1993-03-15 12   20.5   155.7    980    2    54          
1993-03-15 18   21.5   155.6    980    2    54          
1993-03-16 00   22.2   155.6    980    2    54          
1993-03-16 06   22.8   155.6    985    2    41          
1993-03-16 12   23.3   155.6    985    2    41          
1993-03-16 18   23.7   155.6    985    2    45          
1993-03-17 00   24.0   155.9    985    2    51          
1993-03-17 06   24.1   156.1    985    2    51          
1993-03-17 12   24.1   156.4    985    2    45          
1993-03-17 18   23.7   156.8    985    2    45          
1993-03-18 00   23.2   157.0    985    2    45          
1993-03-18 06   22.9   157.2    985    2    45          
1993-03-18 12   22.6   157.5    985    2    45          
1993-03-18 18   22.2   157.9    985    2    51          
1993-03-19 00   21.8   158.3    985    2    51          
1993-03-19 06   21.4   158.7    985    2    51          
1993-03-19 12   20.9   158.9    990    1    45          
1993-03-19 18   20.5   159.0    990    1    45          
1993-03-20 00   20.1   159.1    990    1    45          
1993-03-20 06   19.9   159.3    990    1    51          
1993-03-20 12   20.1   159.7    990    1    51          
1993-03-20 18   20.6   160.5    990    1    51          
1993-03-21 00   21.1   161.7    990    1    45          
Winds are 10-min average.

Tropical cyclone tracks developed by Michael Bath using data from the Bureau of Meteorology and Google Maps.


[Australian Severe Weather index] [Copyright Notice] [Email Contacts] [Search This Site] [Privacy Policy]
Document: tropical_cyclone_roger.htm Updated: 30 May 2013